Terminal Aerodrome Forecast
Issued by NWS

Home | Current Version | Previous Version | Graphics & Text | Print | Product List | Glossary On
Versions: 1 2 3 4 5 6 7 8 9 10 11 12 13 14 15 16 17 18 19 20 21 22 23 24 25
018
FTUS43 KLOT 202059 AAA
TAFORD
TAF AMD
KORD 202059Z 2021/2124 21018G26KT P6SM SCT250
     FM210200 21017G24KT P6SM SCT200 WS015/22050KT
     FM211000 22012KT P6SM BKN150
     FM211500 26015G23KT P6SM BKN120
     FM211700 30016G23KT P6SM BKN100
     FM212200 31012G18KT P6SM SCT040=

USA.gov is the U.S. government's official web portal to all federal, state and local government web resources and services.